»·PEaware :: N22G KELP-KABQ

N22G :: KELP-KABQ

FLIGHT INFORMATION

Flight Status: Arrived
Operator: Privately registered:
United States
More flights under this callsign
Pilot: Ryan L. (28399)
Aircraft: CESSNA 510 CITATION MUSTANG
(C510)
More flights by this aircraft type
Origin: KELP El Paso Intl
United States
Destination: KABQ Albuquerque Intl Sunport
United States
More flights between these airports :: More routes between these airports
Route: +ATKNN5 SLNNK CABNO KRKEE3
File this flight plan on PilotEdge
Remarks:
Altitude:
(Current/Filed)
22,000ft
Speed:
(Current/Filed)
380kts
Departed: 29-May-20 07:26 AM
Arrived: 29-May-20 08:21 AM
Distance/Time
Traveled:
194nm/0:55
Distance/Time
To Go:
Arrived

Flight Plot

Page will automatically refresh every two minutes.

Flight plan parsing failed; only flown route is shown


Map Options




Map Legend


Flown Route
Filed Route
Departure Airport
Arrival Airport
Navaid (VOR, NDB)
Fix

Horizontal Profiles

Position Reports

Time Latitude Longitude Heading Altitude Ground
Speed
29-May-20 07:10 31.794717 -106.384563 311 3939ft 0kts
29-May-20 07:11 31.794717 -106.384563 311 3939ft 0kts
29-May-20 07:12 31.794717 -106.384563 311 3939ft 0kts
29-May-20 07:13 31.794717 -106.384563 311 3939ft 0kts
29-May-20 07:14 31.794717 -106.384563 311 3939ft 0kts
29-May-20 07:15 31.794717 -106.384563 311 3939ft 0kts
29-May-20 07:16 31.794717 -106.384563 311 3939ft 0kts
29-May-20 07:17 31.794717 -106.384563 311 3939ft 0kts
29-May-20 07:18 31.794717 -106.384563 311 3939ft 0kts
29-May-20 07:19 31.794717 -106.384563 311 3939ft 0kts
29-May-20 07:20 31.794717 -106.384563 311 3939ft 0kts
29-May-20 07:21 31.796554 -106.385787 322 3932ft 26kts
29-May-20 07:22 31.800636 -106.390434 316 3922ft 21kts
29-May-20 07:23 31.801230 -106.391081 318 3922ft 0kts
29-May-20 07:24 31.802110 -106.389650 93 3925ft 22kts
29-May-20 07:25 31.800451 -106.351373 92 4486ft 212kts
29-May-20 07:26 31.784097 -106.281272 152 7524ft 243kts
29-May-20 07:27 31.750106 -106.326768 278 10756ft 241kts
29-May-20 07:28 31.752925 -106.403628 278 13757ft 235kts
29-May-20 07:29 31.774758 -106.477639 292 16728ft 248kts
29-May-20 07:30 31.806212 -106.547704 335 19815ft 241kts
29-May-20 07:31 31.864757 -106.589453 333 22339ft 262kts
29-May-20 07:32 31.938923 -106.641955 332 22332ft 344kts
29-May-20 07:33 32.025833 -106.703288 331 22342ft 375kts
29-May-20 07:34 32.116650 -106.767499 331 22357ft 385kts
29-May-20 07:35 32.208803 -106.832765 331 22366ft 389kts
29-May-20 07:36 32.301748 -106.898731 331 22366ft 392kts
29-May-20 07:37 32.395464 -106.965394 331 22366ft 395kts
29-May-20 07:38 32.489850 -107.032695 331 22366ft 398kts
29-May-20 07:39 32.584638 -107.100511 331 22366ft 400kts
29-May-20 07:40 32.679868 -107.168813 331 22366ft 400kts
29-May-20 07:41 32.775126 -107.237286 331 22367ft 401kts
29-May-20 07:42 32.870136 -107.305749 331 22367ft 401kts
29-May-20 07:43 32.965388 -107.374558 331 22367ft 401kts
29-May-20 07:44 33.060778 -107.443335 330 22368ft 403kts
29-May-20 07:45 33.153916 -107.510149 327 22352ft 373kts
29-May-20 07:46 33.242197 -107.575212 327 22365ft 375kts
29-May-20 07:47 33.332570 -107.641400 327 22364ft 378kts
29-May-20 07:48 33.422825 -107.707475 327 22367ft 379kts
29-May-20 07:49 33.513051 -107.773640 327 22366ft 379kts
29-May-20 07:50 33.603900 -107.840420 327 22366ft 379kts
29-May-20 07:51 33.694904 -107.907482 327 22366ft 379kts
29-May-20 07:52 33.785010 -107.974049 327 22365ft 379kts
29-May-20 07:53 33.875081 -108.040756 327 22370ft 379kts
29-May-20 07:54 33.965376 -108.107798 327 22399ft 378kts
29-May-20 07:55 34.056934 -108.175952 327 22426ft 378kts
29-May-20 07:56 34.146576 -108.242847 327 22433ft 378kts
29-May-20 07:57 34.236198 -108.309895 327 22435ft 379kts
29-May-20 07:58 34.327344 -108.378260 327 22433ft 379kts
29-May-20 07:59 34.418977 -108.447169 327 22430ft 379kts
29-May-20 08:00 34.518415 -108.472295 28 21657ft 397kts
29-May-20 08:01 34.542899 -108.353597 105 21451ft 400kts
29-May-20 08:02 34.553245 -108.218934 78 21438ft 401kts
29-May-20 08:03 34.575721 -108.085430 77 21438ft 401kts
29-May-20 08:04 34.598427 -107.950747 77 21436ft 396kts
29-May-20 08:05 34.619912 -107.822313 77 21438ft 381kts
29-May-20 08:06 34.666607 -107.704479 60 20751ft 382kts
29-May-20 08:07 34.715647 -107.591113 61 18460ft 374kts
29-May-20 08:08 34.761122 -107.485440 62 16042ft 341kts
29-May-20 08:09 34.804491 -107.384219 62 14032ft 333kts
29-May-20 08:10 34.848950 -107.279348 64 13930ft 333kts
29-May-20 08:11 34.888464 -107.184159 64 11726ft 316kts
29-May-20 08:12 34.894556 -107.082155 94 9527ft 300kts
29-May-20 08:13 34.888843 -106.984337 93 9031ft 285kts
29-May-20 08:14 34.882717 -106.889135 94 8589ft 271kts
29-May-20 08:15 34.880825 -106.802595 71 8005ft 235kts
29-May-20 08:16 34.923520 -106.749200 42 8004ft 226kts
29-May-20 08:17 34.964454 -106.700227 42 6983ft 172kts
29-May-20 08:18 34.993746 -106.664967 42 6130ft 129kts
29-May-20 08:19 35.017552 -106.636281 43 5475ft 112kts
29-May-20 08:20 35.029679 -106.622034 1 5310ft 6kts
29-May-20 08:21 35.032026 -106.620933 43 5310ft 26kts
29-May-20 08:22 35.036001 -106.617150 42 5312ft 22kts

Navigation Log

Ident Type
Flight plan parsing failed, navigation log unavailable